sensor_id;sensor_type;location;lat;lon;timestamp;pressure;altitude;pressure_sealevel;temperature;humidity
58473;BME280;44775;51.564;5.460;2023-05-11T00:02:13;101145.88;;;11.03;100.00
58473;BME280;44775;51.564;5.460;2023-05-11T00:04:39;101146.06;;;11.02;100.00
58473;BME280;44775;51.564;5.460;2023-05-11T00:07:04;101147.91;;;11.01;100.00
58473;BME280;44775;51.564;5.460;2023-05-11T00:09:30;101137.19;;;11.01;100.00
58473;BME280;44775;51.564;5.460;2023-05-11T00:11:55;101132.00;;;11.00;100.00
58473;BME280;44775;51.564;5.460;2023-05-11T00:14:21;101130.50;;;10.97;100.00
58473;BME280;44775;51.564;5.460;2023-05-11T00:16:46;101131.66;;;10.95;100.00
58473;BME280;44775;51.564;5.460;2023-05-11T00:19:11;101122.31;;;10.91;100.00
58473;BME280;44775;51.564;5.460;2023-05-11T00:21:36;101130.16;;;10.92;100.00
58473;BME280;44775;51.564;5.460;2023-05-11T00:24:02;101121.47;;;10.90;100.00
58473;BME280;44775;51.564;5.460;2023-05-11T00:26:27;101114.94;;;10.93;100.00
58473;BME280;44775;51.564;5.460;2023-05-11T00:28:52;101122.47;;;10.89;100.00
58473;BME280;44775;51.564;5.460;2023-05-11T00:31:18;101129.16;;;10.93;100.00
58473;BME280;44775;51.564;5.460;2023-05-11T00:33:43;101133.97;;;10.90;100.00
58473;BME280;44775;51.564;5.460;2023-05-11T00:36:08;101131.63;;;10.86;100.00
58473;BME280;44775;51.564;5.460;2023-05-11T00:38:34;101140.00;;;10.83;100.00
58473;BME280;44775;51.564;5.460;2023-05-11T00:41:01;101141.50;;;10.86;100.00
58473;BME280;44775;51.564;5.460;2023-05-11T00:43:26;101132.66;;;10.85;100.00
58473;BME280;44775;51.564;5.460;2023-05-11T00:45:51;101135.50;;;10.84;100.00
58473;BME280;44775;51.564;5.460;2023-05-11T00:48:17;101130.81;;;10.86;100.00
58473;BME280;44775;51.564;5.460;2023-05-11T00:50:43;101137.34;;;10.92;100.00
58473;BME280;44775;51.564;5.460;2023-05-11T00:53:08;101134.84;;;10.90;100.00
58473;BME280;44775;51.564;5.460;2023-05-11T00:55:35;101140.84;;;10.92;100.00
58473;BME280;44775;51.564;5.460;2023-05-11T00:58:01;101146.06;;;10.94;100.00
58473;BME280;44775;51.564;5.460;2023-05-11T01:00:29;101148.53;;;10.95;100.00
58473;BME280;44775;51.564;5.460;2023-05-11T01:02:54;101143.19;;;10.95;100.00
58473;BME280;44775;51.564;5.460;2023-05-11T01:05:20;101145.38;;;11.00;100.00
58473;BME280;44775;51.564;5.460;2023-05-11T01:08:07;101143.88;;;10.97;100.00
58473;BME280;44775;51.564;5.460;2023-05-11T01:10:57;101147.38;;;10.98;100.00
58473;BME280;44775;51.564;5.460;2023-05-11T01:13:28;101144.53;;;10.99;100.00
58473;BME280;44775;51.564;5.460;2023-05-11T01:15:55;101147.06;;;11.01;100.00
58473;BME280;44775;51.564;5.460;2023-05-11T01:18:42;101149.56;;;11.02;100.00
58473;BME280;44775;51.564;5.460;2023-05-11T01:21:12;101139.88;;;11.01;100.00
58473;BME280;44775;51.564;5.460;2023-05-11T01:31:39;101151.59;;;11.00;100.00
58473;BME280;44775;51.564;5.460;2023-05-11T01:34:18;101154.06;;;11.02;100.00
58473;BME280;44775;51.564;5.460;2023-05-11T01:36:53;101146.56;;;10.97;100.00
58473;BME280;44775;51.564;5.460;2023-05-11T01:39:31;101158.28;;;11.04;100.00
58473;BME280;44775;51.564;5.460;2023-05-11T01:41:57;101149.88;;;10.99;100.00
58473;BME280;44775;51.564;5.460;2023-05-11T01:44:28;101154.59;;;10.97;100.00
58473;BME280;44775;51.564;5.460;2023-05-11T01:46:57;101152.22;;;10.94;100.00
58473;BME280;44775;51.564;5.460;2023-05-11T01:49:24;101153.72;;;10.88;100.00
58473;BME280;44775;51.564;5.460;2023-05-11T01:51:51;101147.84;;;10.85;100.00
58473;BME280;44775;51.564;5.460;2023-05-11T01:54:18;101155.69;;;10.86;100.00
58473;BME280;44775;51.564;5.460;2023-05-11T01:56:44;101152.19;;;10.86;100.00
58473;BME280;44775;51.564;5.460;2023-05-11T01:59:10;101150.69;;;10.83;100.00
58473;BME280;44775;51.564;5.460;2023-05-11T02:01:38;101150.69;;;10.83;100.00
58473;BME280;44775;51.564;5.460;2023-05-11T02:04:05;101149.34;;;10.79;100.00
58473;BME280;44775;51.564;5.460;2023-05-11T02:06:33;101155.50;;;10.80;100.00
58473;BME280;44775;51.564;5.460;2023-05-11T02:09:00;101159.19;;;10.79;100.00
58473;BME280;44775;51.564;5.460;2023-05-11T02:11:28;101163.72;;;10.78;100.00
58473;BME280;44775;51.564;5.460;2023-05-11T02:13:56;101144.63;;;10.65;100.00
58473;BME280;44775;51.564;5.460;2023-05-11T02:16:23;101150.47;;;10.69;100.00
58473;BME280;44775;51.564;5.460;2023-05-11T02:18:50;101153.47;;;10.66;100.00
58473;BME280;44775;51.564;5.460;2023-05-11T02:21:16;101149.47;;;10.70;100.00
58473;BME280;44775;51.564;5.460;2023-05-11T02:23:42;101153.66;;;10.64;100.00
58473;BME280;44775;51.564;5.460;2023-05-11T02:26:09;101137.41;;;10.57;100.00
58473;BME280;44775;51.564;5.460;2023-05-11T02:28:36;101139.25;;;10.57;100.00
58473;BME280;44775;51.564;5.460;2023-05-11T02:31:05;101143.41;;;10.59;100.00
58473;BME280;44775;51.564;5.460;2023-05-11T02:33:39;101135.44;;;10.68;100.00
58473;BME280;44775;51.564;5.460;2023-05-11T02:36:08;101136.09;;;10.61;100.00
58473;BME280;44775;51.564;5.460;2023-05-11T02:38:34;101138.06;;;10.59;100.00
58473;BME280;44775;51.564;5.460;2023-05-11T02:41:04;101146.25;;;10.50;100.00
58473;BME280;44775;51.564;5.460;2023-05-11T02:43:43;101147.19;;;10.40;100.00
58473;BME280;44775;51.564;5.460;2023-05-11T02:46:14;101144.00;;;10.37;100.00
58473;BME280;44775;51.564;5.460;2023-05-11T02:48:47;101142.16;;;10.29;100.00
58473;BME280;44775;51.564;5.460;2023-05-11T02:51:16;101150.59;;;10.25;100.00
58473;BME280;44775;51.564;5.460;2023-05-11T02:53:43;101153.25;;;10.25;100.00
58473;BME280;44775;51.564;5.460;2023-05-11T02:56:10;101146.19;;;10.15;100.00
58473;BME280;44775;51.564;5.460;2023-05-11T02:58:36;101139.19;;;10.14;100.00
58473;BME280;44775;51.564;5.460;2023-05-11T03:01:06;101146.72;;;10.19;100.00
58473;BME280;44775;51.564;5.460;2023-05-11T03:03:31;101144.38;;;10.16;100.00
58473;BME280;44775;51.564;5.460;2023-05-11T03:05:56;101145.22;;;10.16;100.00
58473;BME280;44775;51.564;5.460;2023-05-11T03:08:22;101150.88;;;10.13;100.00
58473;BME280;44775;51.564;5.460;2023-05-11T03:10:47;101148.66;;;10.09;100.00
58473;BME280;44775;51.564;5.460;2023-05-11T03:13:13;101149.66;;;10.08;100.00
58473;BME280;44775;51.564;5.460;2023-05-11T03:15:39;101148.63;;;10.01;100.00
58473;BME280;44775;51.564;5.460;2023-05-11T03:18:06;101140.09;;;9.97;100.00
58473;BME280;44775;51.564;5.460;2023-05-11T03:20:35;101151.13;;;10.02;100.00
58473;BME280;44775;51.564;5.460;2023-05-11T03:23:01;101149.31;;;10.03;100.00
58473;BME280;44775;51.564;5.460;2023-05-11T03:25:28;101152.44;;;9.98;100.00
58473;BME280;44775;51.564;5.460;2023-05-11T03:27:54;101148.72;;;9.91;100.00
58473;BME280;44775;51.564;5.460;2023-05-11T03:30:21;101151.06;;;9.94;100.00
58473;BME280;44775;51.564;5.460;2023-05-11T03:32:47;101147.56;;;9.93;100.00
58473;BME280;44775;51.564;5.460;2023-05-11T03:35:13;101147.72;;;9.92;100.00
58473;BME280;44775;51.564;5.460;2023-05-11T03:37:38;101152.09;;;9.93;100.00
58473;BME280;44775;51.564;5.460;2023-05-11T03:40:06;101146.75;;;9.93;100.00
58473;BME280;44775;51.564;5.460;2023-05-11T03:42:33;101148.72;;;9.91;100.00
58473;BME280;44775;51.564;5.460;2023-05-11T03:45:00;101152.91;;;9.93;100.00
58473;BME280;44775;51.564;5.460;2023-05-11T03:47:27;101140.41;;;9.94;100.00
58473;BME280;44775;51.564;5.460;2023-05-11T03:49:54;101149.66;;;9.82;100.00
58473;BME280;44775;51.564;5.460;2023-05-11T03:52:20;101151.56;;;9.89;100.00
58473;BME280;44775;51.564;5.460;2023-05-11T03:54:46;101147.97;;;9.81;100.00
58473;BME280;44775;51.564;5.460;2023-05-11T03:57:13;101154.38;;;9.88;100.00
58473;BME280;44775;51.564;5.460;2023-05-11T03:59:39;101155.59;;;9.93;100.00
58473;BME280;44775;51.564;5.460;2023-05-11T04:02:04;101145.38;;;9.89;100.00
58473;BME280;44775;51.564;5.460;2023-05-11T04:04:30;101158.09;;;9.95;100.00
58473;BME280;44775;51.564;5.460;2023-05-11T04:06:57;101154.75;;;9.93;100.00
58473;BME280;44775;51.564;5.460;2023-05-11T04:09:22;101154.22;;;9.89;100.00
58473;BME280;44775;51.564;5.460;2023-05-11T04:11:48;101151.88;;;9.86;100.00
58473;BME280;44775;51.564;5.460;2023-05-11T04:14:13;101153.72;;;9.86;100.00
58473;BME280;44775;51.564;5.460;2023-05-11T04:16:39;101150.81;;;9.79;100.00
58473;BME280;44775;51.564;5.460;2023-05-11T04:19:04;101153.41;;;9.71;100.00
58473;BME280;44775;51.564;5.460;2023-05-11T04:21:30;101158.63;;;9.73;100.00
58473;BME280;44775;51.564;5.460;2023-05-11T04:23:56;101153.41;;;9.71;100.00
58473;BME280;44775;51.564;5.460;2023-05-11T04:26:22;101155.78;;;9.74;100.00
58473;BME280;44775;51.564;5.460;2023-05-11T04:28:47;101152.66;;;9.79;100.00
58473;BME280;44775;51.564;5.460;2023-05-11T04:31:12;101158.34;;;9.84;100.00
58473;BME280;44775;51.564;5.460;2023-05-11T04:33:38;101154.88;;;9.91;100.00
58473;BME280;44775;51.564;5.460;2023-05-11T04:36:03;101158.94;;;9.96;100.00
58473;BME280;44775;51.564;5.460;2023-05-11T04:38:29;101161.28;;;9.99;100.00
58473;BME280;44775;51.564;5.460;2023-05-11T04:40:54;101155.31;;;10.05;100.00
58473;BME280;44775;51.564;5.460;2023-05-11T04:43:20;101155.00;;;10.08;100.00
58473;BME280;44775;51.564;5.460;2023-05-11T04:45:49;101152.19;;;10.09;100.00
58473;BME280;44775;51.564;5.460;2023-05-11T04:48:15;101149.34;;;10.11;100.00
58473;BME280;44775;51.564;5.460;2023-05-11T04:50:41;101153.84;;;10.10;100.00
58473;BME280;44775;51.564;5.460;2023-05-11T04:53:06;101162.38;;;10.14;100.00
58473;BME280;44775;51.564;5.460;2023-05-11T04:55:31;101160.53;;;10.14;100.00
58473;BME280;44775;51.564;5.460;2023-05-11T04:57:56;101163.06;;;10.16;100.00
58473;BME280;44775;51.564;5.460;2023-05-11T05:00:22;101166.94;;;10.22;100.00
58473;BME280;44775;51.564;5.460;2023-05-11T05:02:47;101173.66;;;10.26;100.00
58473;BME280;44775;51.564;5.460;2023-05-11T05:05:14;101170.00;;;10.27;100.00
58473;BME280;44775;51.564;5.460;2023-05-11T05:07:40;101174.34;;;10.28;100.00
58473;BME280;44775;51.564;5.460;2023-05-11T05:10:05;101181.22;;;10.30;100.00
58473;BME280;44775;51.564;5.460;2023-05-11T05:12:36;101176.69;;;10.31;100.00
58473;BME280;44775;51.564;5.460;2023-05-11T05:15:02;101179.56;;;10.37;100.00
58473;BME280;44775;51.564;5.460;2023-05-11T05:17:28;101179.91;;;10.43;100.00
58473;BME280;44775;51.564;5.460;2023-05-11T05:19:53;101193.81;;;10.46;100.00
58473;BME280;44775;51.564;5.460;2023-05-11T05:22:19;101196.16;;;10.49;100.00
58473;BME280;44775;51.564;5.460;2023-05-11T05:24:44;101181.81;;;10.50;100.00
58473;BME280;44775;51.564;5.460;2023-05-11T05:27:09;101190.88;;;10.57;100.00
58473;BME280;44775;51.564;5.460;2023-05-11T05:29:35;101198.75;;;10.67;100.00
58473;BME280;44775;51.564;5.460;2023-05-11T05:32:00;101199.41;;;10.69;100.00
58473;BME280;44775;51.564;5.460;2023-05-11T05:34:25;101200.81;;;10.81;100.00
58473;BME280;44775;51.564;5.460;2023-05-11T05:36:50;101205.66;;;10.86;100.00
58473;BME280;44775;51.564;5.460;2023-05-11T05:39:16;101200.88;;;10.98;100.00
58473;BME280;44775;51.564;5.460;2023-05-11T05:41:42;101200.88;;;10.98;100.00
58473;BME280;44775;51.564;5.460;2023-05-11T05:44:07;101201.38;;;11.09;100.00
58473;BME280;44775;51.564;5.460;2023-05-11T05:46:32;101200.88;;;11.06;100.00
58473;BME280;44775;51.564;5.460;2023-05-11T05:48:58;101214.47;;;11.29;100.00
58473;BME280;44775;51.564;5.460;2023-05-11T05:51:23;101210.47;;;11.33;100.00
58473;BME280;44775;51.564;5.460;2023-05-11T05:53:48;101214.16;;;11.32;100.00
58473;BME280;44775;51.564;5.460;2023-05-11T05:56:13;101214.84;;;11.42;100.00
58473;BME280;44775;51.564;5.460;2023-05-11T05:58:40;101206.63;;;11.35;100.00
58473;BME280;44775;51.564;5.460;2023-05-11T06:01:05;101215.38;;;11.62;100.00
58473;BME280;44775;51.564;5.460;2023-05-11T06:03:30;101222.06;;;11.66;100.00
58473;BME280;44775;51.564;5.460;2023-05-11T06:05:56;101224.91;;;11.65;100.00
58473;BME280;44775;51.564;5.460;2023-05-11T06:08:21;101233.25;;;11.70;100.00
58473;BME280;44775;51.564;5.460;2023-05-11T06:10:46;101226.91;;;11.63;100.00
58473;BME280;44775;51.564;5.460;2023-05-11T06:13:12;101228.25;;;11.75;100.00
58473;BME280;44775;51.564;5.460;2023-05-11T06:15:37;101232.25;;;11.71;100.00
58473;BME280;44775;51.564;5.460;2023-05-11T06:18:03;101233.09;;;11.79;100.00
58473;BME280;44775;51.564;5.460;2023-05-11T06:20:30;101246.34;;;11.97;100.00
58473;BME280;44775;51.564;5.460;2023-05-11T06:22:55;101237.16;;;11.92;100.00
58473;BME280;44775;51.564;5.460;2023-05-11T06:25:21;101243.84;;;11.96;100.00
58473;BME280;44775;51.564;5.460;2023-05-11T06:27:46;101241.81;;;12.22;100.00
58473;BME280;44775;51.564;5.460;2023-05-11T06:30:11;101238.47;;;12.28;100.00
58473;BME280;44775;51.564;5.460;2023-05-11T06:32:37;101242.91;;;12.61;100.00
58473;BME280;44775;51.564;5.460;2023-05-11T06:35:02;101239.44;;;12.52;100.00
58473;BME280;44775;51.564;5.460;2023-05-11T06:37:28;101249.09;;;12.61;100.00
58473;BME280;44775;51.564;5.460;2023-05-11T06:39:54;101248.06;;;12.70;100.00
58473;BME280;44775;51.564;5.460;2023-05-11T06:42:20;101249.72;;;12.71;100.00
58473;BME280;44775;51.564;5.460;2023-05-11T06:44:47;101246.22;;;12.79;100.00
58473;BME280;44775;51.564;5.460;2023-05-11T06:47:13;101253.88;;;12.90;100.00
58473;BME280;44775;51.564;5.460;2023-05-11T06:49:40;101257.00;;;13.02;100.00
58473;BME280;44775;51.564;5.460;2023-05-11T06:52:07;101255.78;;;13.13;100.00
58473;BME280;44775;51.564;5.460;2023-05-11T06:54:33;101258.16;;;13.08;100.00
58473;BME280;44775;51.564;5.460;2023-05-11T06:56:58;101266.25;;;12.91;100.00
58473;BME280;44775;51.564;5.460;2023-05-11T06:59:23;101258.34;;;12.98;100.00
58473;BME280;44775;51.564;5.460;2023-05-11T07:01:49;101268.56;;;13.03;100.00
58473;BME280;44775;51.564;5.460;2023-05-11T07:04:14;101267.38;;;13.05;100.00
58473;BME280;44775;51.564;5.460;2023-05-11T07:06:40;101268.19;;;13.14;100.00
58473;BME280;44775;51.564;5.460;2023-05-11T07:09:05;101267.84;;;13.17;100.00
58473;BME280;44775;51.564;5.460;2023-05-11T07:11:30;101269.47;;;13.26;100.00
58473;BME280;44775;51.564;5.460;2023-05-11T07:13:56;101276.63;;;13.42;100.00
58473;BME280;44775;51.564;5.460;2023-05-11T07:16:21;101274.28;;;13.39;100.00
58473;BME280;44775;51.564;5.460;2023-05-11T07:18:47;101274.16;;;13.32;100.00
58473;BME280;44775;51.564;5.460;2023-05-11T07:21:13;101271.91;;;13.44;100.00
58473;BME280;44775;51.564;5.460;2023-05-11T07:23:38;101268.69;;;13.49;100.00
58473;BME280;44775;51.564;5.460;2023-05-11T07:26:03;101275.50;;;13.59;100.00
58473;BME280;44775;51.564;5.460;2023-05-11T07:28:36;101279.13;;;13.43;100.00
58473;BME280;44775;51.564;5.460;2023-05-11T07:31:01;101272.06;;;13.42;100.00
58473;BME280;44775;51.564;5.460;2023-05-11T07:33:26;101273.34;;;13.55;100.00
58473;BME280;44775;51.564;5.460;2023-05-11T07:35:52;101275.94;;;13.71;100.00
58473;BME280;44775;51.564;5.460;2023-05-11T07:38:17;101284.28;;;13.76;100.00
58473;BME280;44775;51.564;5.460;2023-05-11T07:40:42;101278.66;;;13.86;100.00
58473;BME280;44775;51.564;5.460;2023-05-11T07:43:08;101285.53;;;13.88;100.00
58473;BME280;44775;51.564;5.460;2023-05-11T07:45:33;101283.88;;;13.87;100.00
58473;BME280;44775;51.564;5.460;2023-05-11T07:47:59;101291.16;;;14.02;100.00
58473;BME280;44775;51.564;5.460;2023-05-11T07:50:24;101297.13;;;14.12;100.00
58473;BME280;44775;51.564;5.460;2023-05-11T07:52:50;101290.22;;;14.32;100.00
58473;BME280;44775;51.564;5.460;2023-05-11T07:55:15;101286.66;;;14.55;100.00
58473;BME280;44775;51.564;5.460;2023-05-11T07:57:40;101290.03;;;14.72;100.00
58473;BME280;44775;51.564;5.460;2023-05-11T08:00:06;101292.13;;;14.91;100.00
58473;BME280;44775;51.564;5.460;2023-05-11T08:02:32;101298.44;;;14.98;100.00
58473;BME280;44775;51.564;5.460;2023-05-11T08:04:57;101283.78;;;15.01;100.00
58473;BME280;44775;51.564;5.460;2023-05-11T08:07:22;101300.22;;;15.06;100.00
58473;BME280;44775;51.564;5.460;2023-05-11T08:09:48;101303.16;;;14.81;100.00
58473;BME280;44775;51.564;5.460;2023-05-11T08:12:14;101299.28;;;14.69;100.00
58473;BME280;44775;51.564;5.460;2023-05-11T08:14:39;101297.97;;;14.50;100.00
58473;BME280;44775;51.564;5.460;2023-05-11T08:17:07;101298.50;;;14.46;100.00
58473;BME280;44775;51.564;5.460;2023-05-11T08:19:32;101302.44;;;14.58;100.00
58473;BME280;44775;51.564;5.460;2023-05-11T08:21:57;101305.97;;;14.58;100.00
58473;BME280;44775;51.564;5.460;2023-05-11T08:24:23;101299.66;;;14.66;100.00
58473;BME280;44775;51.564;5.460;2023-05-11T08:26:48;101311.44;;;14.80;100.00
58473;BME280;44775;51.564;5.460;2023-05-11T08:29:13;101308.00;;;14.71;100.00
58473;BME280;44775;51.564;5.460;2023-05-11T08:31:39;101304.09;;;14.74;100.00
58473;BME280;44775;51.564;5.460;2023-05-11T08:34:05;101312.09;;;14.82;100.00
58473;BME280;44775;51.564;5.460;2023-05-11T08:36:32;101308.38;;;14.98;100.00
58473;BME280;44775;51.564;5.460;2023-05-11T08:38:57;101310.81;;;14.93;100.00
58473;BME280;44775;51.564;5.460;2023-05-11T08:41:23;101304.03;;;14.97;100.00
58473;BME280;44775;51.564;5.460;2023-05-11T08:43:48;101304.41;;;14.79;100.00
58473;BME280;44775;51.564;5.460;2023-05-11T08:46:19;101307.81;;;14.58;100.00
58473;BME280;44775;51.564;5.460;2023-05-11T08:48:46;101306.50;;;14.54;100.00
58473;BME280;44775;51.564;5.460;2023-05-11T08:51:11;101298.63;;;14.29;100.00
58473;BME280;44775;51.564;5.460;2023-05-11T08:53:36;101303.19;;;14.29;100.00
58473;BME280;44775;51.564;5.460;2023-05-11T08:56:03;101300.81;;;14.11;100.00
58473;BME280;44775;51.564;5.460;2023-05-11T08:58:32;101304.47;;;14.33;100.00
58473;BME280;44775;51.564;5.460;2023-05-11T09:00:58;101298.38;;;14.39;100.00
58473;BME280;44775;51.564;5.460;2023-05-11T09:03:24;101305.84;;;14.52;100.00
58473;BME280;44775;51.564;5.460;2023-05-11T09:05:51;101310.41;;;14.66;100.00
58473;BME280;44775;51.564;5.460;2023-05-11T09:08:17;101307.00;;;15.02;100.00
58473;BME280;44775;51.564;5.460;2023-05-11T09:10:43;101310.16;;;15.42;100.00
58473;BME280;44775;51.564;5.460;2023-05-11T09:13:09;101314.50;;;15.57;100.00
58473;BME280;44775;51.564;5.460;2023-05-11T09:15:34;101316.78;;;15.75;100.00
58473;BME280;44775;51.564;5.460;2023-05-11T09:18:00;101318.69;;;15.96;100.00
58473;BME280;44775;51.564;5.460;2023-05-11T09:20:27;101324.50;;;16.21;100.00
58473;BME280;44775;51.564;5.460;2023-05-11T09:22:54;101324.41;;;16.36;100.00
58473;BME280;44775;51.564;5.460;2023-05-11T09:25:20;101313.97;;;16.05;100.00
58473;BME280;44775;51.564;5.460;2023-05-11T09:27:46;101319.34;;;16.26;100.00
58473;BME280;44775;51.564;5.460;2023-05-11T09:30:17;101323.09;;;16.53;100.00
58473;BME280;44775;51.564;5.460;2023-05-11T09:35:21;101327.97;;;17.41;100.00
58473;BME280;44775;51.564;5.460;2023-05-11T09:38:09;101328.88;;;17.61;100.00
58473;BME280;44775;51.564;5.460;2023-05-11T09:43:03;101328.91;;;17.68;100.00
58473;BME280;44775;51.564;5.460;2023-05-11T09:45:41;101323.13;;;17.78;100.00
58473;BME280;44775;51.564;5.460;2023-05-11T09:48:22;101328.59;;;18.04;100.00
58473;BME280;44775;51.564;5.460;2023-05-11T09:50:48;101323.19;;;18.17;98.84
58473;BME280;44775;51.564;5.460;2023-05-11T09:53:14;101322.78;;;18.40;93.67
58473;BME280;44775;51.564;5.460;2023-05-11T09:55:54;101324.03;;;18.64;99.08
58473;BME280;44775;51.564;5.460;2023-05-11T09:58:20;101317.38;;;18.60;95.50
58473;BME280;44775;51.564;5.460;2023-05-11T10:00:49;101320.91;;;18.68;96.02
58473;BME280;44775;51.564;5.460;2023-05-11T10:03:15;101331.97;;;18.46;92.32
58473;BME280;44775;51.564;5.460;2023-05-11T10:05:55;101321.31;;;18.25;98.20
58473;BME280;44775;51.564;5.460;2023-05-11T10:08:29;101325.78;;;17.64;94.92
58473;BME280;44775;51.564;5.460;2023-05-11T10:10:55;101323.13;;;17.23;98.08
58473;BME280;44775;51.564;5.460;2023-05-11T10:13:22;101315.72;;;16.97;100.00
58473;BME280;44775;51.564;5.460;2023-05-11T10:15:50;101315.22;;;16.80;100.00
58473;BME280;44775;51.564;5.460;2023-05-11T10:18:15;101327.75;;;16.66;100.00
58473;BME280;44775;51.564;5.460;2023-05-11T10:20:41;101323.41;;;16.37;100.00
58473;BME280;44775;51.564;5.460;2023-05-11T10:23:07;101314.00;;;16.33;100.00
58473;BME280;44775;51.564;5.460;2023-05-11T10:25:34;101309.75;;;15.96;100.00
58473;BME280;44775;51.564;5.460;2023-05-11T10:27:59;101317.38;;;16.35;100.00
58473;BME280;44775;51.564;5.460;2023-05-11T10:30:25;101318.56;;;16.54;100.00
58473;BME280;44775;51.564;5.460;2023-05-11T10:32:51;101313.56;;;16.29;100.00
58473;BME280;44775;51.564;5.460;2023-05-11T10:35:17;101321.03;;;16.27;100.00
58473;BME280;44775;51.564;5.460;2023-05-11T10:37:44;101312.13;;;16.05;100.00
58473;BME280;44775;51.564;5.460;2023-05-11T10:40:10;101319.38;;;16.05;100.00
58473;BME280;44775;51.564;5.460;2023-05-11T10:50:38;101312.94;;;16.06;100.00
58473;BME280;44775;51.564;5.460;2023-05-11T11:01:35;101320.28;;;17.38;100.00
58473;BME280;44775;51.564;5.460;2023-05-11T11:04:03;101325.19;;;17.76;98.81
58473;BME280;44775;51.564;5.460;2023-05-11T11:06:31;101307.19;;;17.96;94.80
58473;BME280;44775;51.564;5.460;2023-05-11T11:08:59;101318.19;;;17.94;95.38
58473;BME280;44775;51.564;5.460;2023-05-11T11:11:39;101316.97;;;18.10;93.01
58473;BME280;44775;51.564;5.460;2023-05-11T11:14:06;101310.09;;;18.21;92.65
58473;BME280;44775;51.564;5.460;2023-05-11T11:16:35;101313.84;;;18.53;88.68
58473;BME280;44775;51.564;5.460;2023-05-11T11:21:53;101313.34;;;18.96;85.84
58473;BME280;44775;51.564;5.460;2023-05-11T11:27:02;101319.41;;;20.45;80.92
58473;BME280;44775;51.564;5.460;2023-05-11T11:29:29;101313.81;;;20.65;75.08
58473;BME280;44775;51.564;5.460;2023-05-11T11:31:54;101319.13;;;20.78;73.46
58473;BME280;44775;51.564;5.460;2023-05-11T11:39:24;101310.72;;;20.61;73.46
58473;BME280;44775;51.564;5.460;2023-05-11T11:42:00;101303.72;;;21.09;74.41
58473;BME280;44775;51.564;5.460;2023-05-11T11:44:26;101301.00;;;21.09;68.76
58473;BME280;44775;51.564;5.460;2023-05-11T11:47:21;101304.16;;;21.42;75.04
58473;BME280;44775;51.564;5.460;2023-05-11T11:49:49;101312.72;;;21.09;63.72
58473;BME280;44775;51.564;5.460;2023-05-11T11:54:53;101300.63;;;21.05;69.86
58473;BME280;44775;51.564;5.460;2023-05-11T11:59:53;101301.91;;;21.21;72.25
58473;BME280;44775;51.564;5.460;2023-05-11T12:02:19;101297.03;;;22.02;65.51
58473;BME280;44775;51.564;5.460;2023-05-11T12:04:51;101305.59;;;22.17;68.31
58473;BME280;44775;51.564;5.460;2023-05-11T12:07:19;101304.69;;;22.23;63.36
58473;BME280;44775;51.564;5.460;2023-05-11T12:09:45;101312.75;;;21.88;64.45
58473;BME280;44775;51.564;5.460;2023-05-11T12:12:11;101308.06;;;21.16;66.54
58473;BME280;44775;51.564;5.460;2023-05-11T12:14:37;101307.50;;;20.71;68.89
58473;BME280;44775;51.564;5.460;2023-05-11T12:17:05;101297.91;;;20.43;67.07
58473;BME280;44775;51.564;5.460;2023-05-11T12:19:37;101294.41;;;20.11;73.90
58473;BME280;44775;51.564;5.460;2023-05-11T12:22:02;101294.72;;;20.03;72.73
58473;BME280;44775;51.564;5.460;2023-05-11T12:24:28;101291.53;;;19.81;74.11
58473;BME280;44775;51.564;5.460;2023-05-11T12:26:56;101282.38;;;19.75;73.55
58473;BME280;44775;51.564;5.460;2023-05-11T12:29:22;101280.38;;;19.64;76.57
58473;BME280;44775;51.564;5.460;2023-05-11T12:31:47;101289.34;;;19.65;75.52
58473;BME280;44775;51.564;5.460;2023-05-11T12:34:18;101285.78;;;19.96;70.42
58473;BME280;44775;51.564;5.460;2023-05-11T12:36:44;101286.63;;;20.46;72.07
58473;BME280;44775;51.564;5.460;2023-05-11T12:41:43;101286.13;;;21.30;67.39
58473;BME280;44775;51.564;5.460;2023-05-11T12:44:09;101289.66;;;21.79;63.67
58473;BME280;44775;51.564;5.460;2023-05-11T12:46:35;101283.91;;;22.10;60.90
58473;BME280;44775;51.564;5.460;2023-05-11T12:49:01;101280.09;;;22.42;55.17
58473;BME280;44775;51.564;5.460;2023-05-11T12:51:45;101289.06;;;22.66;60.63
58473;BME280;44775;51.564;5.460;2023-05-11T12:54:11;101279.66;;;22.03;56.78
58473;BME280;44775;51.564;5.460;2023-05-11T12:56:48;101284.09;;;22.15;62.59
58473;BME280;44775;51.564;5.460;2023-05-11T13:01:48;101279.38;;;22.34;61.40
58473;BME280;44775;51.564;5.460;2023-05-11T13:04:14;101272.56;;;21.60;59.67
58473;BME280;44775;51.564;5.460;2023-05-11T13:06:43;101279.47;;;21.74;63.46
58473;BME280;44775;51.564;5.460;2023-05-11T13:09:09;101273.22;;;21.74;62.63
58473;BME280;44775;51.564;5.460;2023-05-11T13:11:34;101266.41;;;21.95;61.30
58473;BME280;44775;51.564;5.460;2023-05-11T13:14:14;101274.63;;;22.30;61.81
58473;BME280;44775;51.564;5.460;2023-05-11T13:16:39;101266.94;;;22.15;60.65
58473;BME280;44775;51.564;5.460;2023-05-11T13:19:06;101274.56;;;21.95;54.19
58473;BME280;44775;51.564;5.460;2023-05-11T13:21:32;101275.16;;;21.55;57.39
58473;BME280;44775;51.564;5.460;2023-05-11T13:23:59;101269.84;;;21.60;57.62
58473;BME280;44775;51.564;5.460;2023-05-11T13:26:25;101264.09;;;21.68;62.38
58473;BME280;44775;51.564;5.460;2023-05-11T13:28:52;101256.69;;;21.99;63.83
58473;BME280;44775;51.564;5.460;2023-05-11T13:31:17;101256.09;;;21.97;65.86
58473;BME280;44775;51.564;5.460;2023-05-11T13:33:44;101254.34;;;21.90;63.65